sensor_id;sensor_type;location;lat;lon;timestamp;pressure;altitude;pressure_sealevel;temperature;humidity
24486;BME280;13449;49.374;8.584;2023-03-15T00:01:29;101040.31;;;28.10;nan
24486;BME280;13449;49.374;8.584;2023-03-15T00:03:56;101046.72;;;28.05;nan
24486;BME280;13449;49.374;8.584;2023-03-15T00:06:23;101042.63;;;27.88;nan
24486;BME280;13449;49.374;8.584;2023-03-15T00:08:49;101042.44;;;28.28;nan
24486;BME280;13449;49.374;8.584;2023-03-15T00:11:19;101051.50;;;28.15;nan
24486;BME280;13449;49.374;8.584;2023-03-15T00:13:46;101056.84;;;28.11;nan
24486;BME280;13449;49.374;8.584;2023-03-15T00:16:12;101060.78;;;28.10;nan
24486;BME280;13449;49.374;8.584;2023-03-15T00:18:44;101070.13;;;27.75;nan
24486;BME280;13449;49.374;8.584;2023-03-15T00:21:13;101061.50;;;27.57;nan
24486;BME280;13449;49.374;8.584;2023-03-15T00:23:39;101064.69;;;28.09;nan
24486;BME280;13449;49.374;8.584;2023-03-15T00:26:06;101077.28;;;28.22;nan
24486;BME280;13449;49.374;8.584;2023-03-15T00:28:32;101085.63;;;28.32;nan
24486;BME280;13449;49.374;8.584;2023-03-15T00:31:06;101086.91;;;27.96;nan
24486;BME280;13449;49.374;8.584;2023-03-15T00:33:34;101086.03;;;28.10;nan
24486;BME280;13449;49.374;8.584;2023-03-15T00:36:03;101076.38;;;27.52;nan
24486;BME280;13449;49.374;8.584;2023-03-15T00:38:31;101062.66;;;27.30;nan
24486;BME280;13449;49.374;8.584;2023-03-15T00:41:06;101049.53;;;27.16;nan
24486;BME280;13449;49.374;8.584;2023-03-15T00:43:33;101047.28;;;27.33;nan
24486;BME280;13449;49.374;8.584;2023-03-15T00:46:00;101037.78;;;26.99;nan
24486;BME280;13449;49.374;8.584;2023-03-15T00:48:27;101047.84;;;26.54;nan
24486;BME280;13449;49.374;8.584;2023-03-15T00:51:08;101043.31;;;26.28;nan
24486;BME280;13449;49.374;8.584;2023-03-15T00:53:37;101037.78;;;24.87;nan
24486;BME280;13449;49.374;8.584;2023-03-15T00:56:12;101011.34;;;26.14;nan
24486;BME280;13449;49.374;8.584;2023-03-15T00:58:39;101032.13;;;26.28;nan
24486;BME280;13449;49.374;8.584;2023-03-15T01:01:15;101037.19;;;26.51;nan
24486;BME280;13449;49.374;8.584;2023-03-15T01:03:42;101052.88;;;27.28;nan
24486;BME280;13449;49.374;8.584;2023-03-15T01:06:20;101070.66;;;27.93;nan
24486;BME280;13449;49.374;8.584;2023-03-15T01:08:47;101075.25;;;27.58;nan
24486;BME280;13449;49.374;8.584;2023-03-15T01:11:17;101062.41;;;27.12;nan
24486;BME280;13449;49.374;8.584;2023-03-15T01:13:44;101057.53;;;26.21;nan
24486;BME280;13449;49.374;8.584;2023-03-15T01:16:12;101048.00;;;26.17;nan
24486;BME280;13449;49.374;8.584;2023-03-15T01:18:40;101050.41;;;25.88;nan
24486;BME280;13449;49.374;8.584;2023-03-15T01:21:08;101034.81;;;25.98;nan
24486;BME280;13449;49.374;8.584;2023-03-15T01:23:35;101039.38;;;26.29;nan
24486;BME280;13449;49.374;8.584;2023-03-15T01:26:03;101037.84;;;25.91;nan
24486;BME280;13449;49.374;8.584;2023-03-15T01:28:30;101021.50;;;25.53;nan
24486;BME280;13449;49.374;8.584;2023-03-15T01:30:57;101010.81;;;25.49;nan
24486;BME280;13449;49.374;8.584;2023-03-15T01:33:25;101005.03;;;25.14;nan
24486;BME280;13449;49.374;8.584;2023-03-15T01:36:03;101006.66;;;26.39;nan
24486;BME280;13449;49.374;8.584;2023-03-15T01:38:30;101015.34;;;26.33;nan
24486;BME280;13449;49.374;8.584;2023-03-15T01:40:57;101019.00;;;26.74;nan
24486;BME280;13449;49.374;8.584;2023-03-15T01:43:25;101023.53;;;26.95;nan
24486;BME280;13449;49.374;8.584;2023-03-15T01:45:58;101017.34;;;25.60;nan
24486;BME280;13449;49.374;8.584;2023-03-15T01:48:39;101008.13;;;24.49;nan
24486;BME280;13449;49.374;8.584;2023-03-15T01:51:19;100987.31;;;24.30;nan
24486;BME280;13449;49.374;8.584;2023-03-15T01:53:55;100975.50;;;24.81;nan
24486;BME280;13449;49.374;8.584;2023-03-15T01:56:26;100986.34;;;24.46;nan
24486;BME280;13449;49.374;8.584;2023-03-15T01:58:54;100965.69;;;25.16;nan
24486;BME280;13449;49.374;8.584;2023-03-15T02:01:22;100977.22;;;25.29;nan
24486;BME280;13449;49.374;8.584;2023-03-15T02:03:55;100972.00;;;25.01;nan
24486;BME280;13449;49.374;8.584;2023-03-15T02:06:24;100978.63;;;24.85;nan
24486;BME280;13449;49.374;8.584;2023-03-15T02:08:58;100977.25;;;25.39;nan
24486;BME280;13449;49.374;8.584;2023-03-15T02:11:26;100983.34;;;25.98;nan
24486;BME280;13449;49.374;8.584;2023-03-15T02:13:54;100991.78;;;24.94;nan
24486;BME280;13449;49.374;8.584;2023-03-15T02:16:23;100995.47;;;25.00;nan
24486;BME280;13449;49.374;8.584;2023-03-15T02:18:50;100989.50;;;25.85;nan
24486;BME280;13449;49.374;8.584;2023-03-15T02:21:34;100999.31;;;25.98;nan
24486;BME280;13449;49.374;8.584;2023-03-15T02:26:41;101011.44;;;25.52;nan
24486;BME280;13449;49.374;8.584;2023-03-15T02:29:09;101015.06;;;26.29;nan
24486;BME280;13449;49.374;8.584;2023-03-15T02:31:36;101020.97;;;26.73;nan
24486;BME280;13449;49.374;8.584;2023-03-15T02:34:06;101029.91;;;25.63;nan
24486;BME280;13449;49.374;8.584;2023-03-15T02:36:34;101025.44;;;25.15;nan
24486;BME280;13449;49.374;8.584;2023-03-15T02:39:15;101024.94;;;25.23;nan
24486;BME280;13449;49.374;8.584;2023-03-15T02:41:57;101027.44;;;24.56;nan
24486;BME280;13449;49.374;8.584;2023-03-15T02:44:36;101014.31;;;24.56;nan
24486;BME280;13449;49.374;8.584;2023-03-15T02:47:24;101010.56;;;24.40;nan
24486;BME280;13449;49.374;8.584;2023-03-15T02:49:53;101014.28;;;24.83;nan
24486;BME280;13449;49.374;8.584;2023-03-15T02:52:21;101019.59;;;24.52;nan
24486;BME280;13449;49.374;8.584;2023-03-15T02:57:06;100927.38;;;23.52;26.90
24486;BME280;13449;49.374;8.584;2023-03-15T02:59:33;100958.63;;;24.07;25.68
24486;BME280;13449;49.374;8.584;2023-03-15T03:01:59;100969.53;;;24.09;25.88
24486;BME280;13449;49.374;8.584;2023-03-15T03:04:26;100976.88;;;23.93;25.72
24486;BME280;13449;49.374;8.584;2023-03-15T03:06:55;100985.00;;;23.51;26.34
24486;BME280;13449;49.374;8.584;2023-03-15T03:09:24;100993.47;;;23.40;26.08
24486;BME280;13449;49.374;8.584;2023-03-15T03:11:51;100995.38;;;23.78;25.70
24486;BME280;13449;49.374;8.584;2023-03-15T03:14:17;101000.94;;;23.18;26.11
24486;BME280;13449;49.374;8.584;2023-03-15T03:16:44;100981.31;;;24.43;24.93
24486;BME280;13449;49.374;8.584;2023-03-15T03:19:12;101000.56;;;23.69;25.97
24486;BME280;13449;49.374;8.584;2023-03-15T03:21:39;100999.34;;;24.67;24.69
24486;BME280;13449;49.374;8.584;2023-03-15T03:24:09;101011.38;;;24.36;25.03
24486;BME280;13449;49.374;8.584;2023-03-15T03:26:36;101007.63;;;24.57;24.82
24486;BME280;13449;49.374;8.584;2023-03-15T03:29:04;101026.56;;;24.23;24.81
24486;BME280;13449;49.374;8.584;2023-03-15T03:31:31;101019.91;;;24.02;25.06
24486;BME280;13449;49.374;8.584;2023-03-15T03:34:00;101017.72;;;23.61;25.93
24486;BME280;13449;49.374;8.584;2023-03-15T03:36:26;101008.13;;;23.95;25.58
24486;BME280;13449;49.374;8.584;2023-03-15T03:38:53;101013.38;;;23.70;25.67
24486;BME280;13449;49.374;8.584;2023-03-15T03:41:20;101011.25;;;24.26;25.39
24486;BME280;13449;49.374;8.584;2023-03-15T03:43:51;101024.41;;;24.30;24.86
24486;BME280;13449;49.374;8.584;2023-03-15T03:46:18;101024.50;;;24.72;24.84
24486;BME280;13449;49.374;8.584;2023-03-15T03:48:47;101036.00;;;24.49;24.57
24486;BME280;13449;49.374;8.584;2023-03-15T03:51:14;101044.44;;;25.18;24.02
24486;BME280;13449;49.374;8.584;2023-03-15T03:53:40;101048.88;;;25.14;23.74
24486;BME280;13449;49.374;8.584;2023-03-15T03:56:07;101054.19;;;24.83;23.95
24486;BME280;13449;49.374;8.584;2023-03-15T03:58:34;101049.69;;;24.50;24.69
24486;BME280;13449;49.374;8.584;2023-03-15T04:01:05;101049.13;;;25.12;23.71
24486;BME280;13449;49.374;8.584;2023-03-15T04:03:32;101056.09;;;24.78;24.19
24486;BME280;13449;49.374;8.584;2023-03-15T04:06:00;101058.22;;;24.39;24.82
24486;BME280;13449;49.374;8.584;2023-03-15T04:08:26;101049.25;;;23.88;25.36
24486;BME280;13449;49.374;8.584;2023-03-15T04:10:55;101051.97;;;24.53;24.65
24486;BME280;13449;49.374;8.584;2023-03-15T04:13:23;101054.09;;;25.05;23.86
24486;BME280;13449;49.374;8.584;2023-03-15T04:15:50;101054.28;;;24.93;24.07
24486;BME280;13449;49.374;8.584;2023-03-15T04:18:17;101068.28;;;24.98;24.00
24486;BME280;13449;49.374;8.584;2023-03-15T04:20:46;101073.25;;;24.65;24.11
24486;BME280;13449;49.374;8.584;2023-03-15T04:23:18;101066.16;;;25.11;23.73
24486;BME280;13449;49.374;8.584;2023-03-15T04:25:48;101066.81;;;25.23;23.41
24486;BME280;13449;49.374;8.584;2023-03-15T04:28:16;101068.47;;;24.87;23.96
24486;BME280;13449;49.374;8.584;2023-03-15T04:30:42;101067.00;;;25.11;23.71
24486;BME280;13449;49.374;8.584;2023-03-15T04:33:09;101073.75;;;25.20;23.39
24486;BME280;13449;49.374;8.584;2023-03-15T04:35:37;101087.16;;;24.86;23.56
24486;BME280;13449;49.374;8.584;2023-03-15T04:38:05;101069.00;;;25.16;23.21
24486;BME280;13449;49.374;8.584;2023-03-15T04:40:32;101077.63;;;25.14;23.30
24486;BME280;13449;49.374;8.584;2023-03-15T04:43:02;101083.03;;;25.31;23.00
24486;BME280;13449;49.374;8.584;2023-03-15T04:45:32;101085.00;;;25.30;23.13
24486;BME280;13449;49.374;8.584;2023-03-15T04:48:00;101092.09;;;25.48;22.86
24486;BME280;13449;49.374;8.584;2023-03-15T04:50:28;101087.00;;;25.40;22.89
24486;BME280;13449;49.374;8.584;2023-03-15T04:52:56;101086.25;;;25.13;23.39
24486;BME280;13449;49.374;8.584;2023-03-15T04:55:24;101095.66;;;25.01;23.48
24486;BME280;13449;49.374;8.584;2023-03-15T04:57:51;101092.38;;;25.10;23.41
24486;BME280;13449;49.374;8.584;2023-03-15T05:00:18;101093.09;;;25.32;23.08
24486;BME280;13449;49.374;8.584;2023-03-15T05:02:48;101083.25;;;24.87;23.58
24486;BME280;13449;49.374;8.584;2023-03-15T05:05:21;101082.97;;;25.21;23.52
24486;BME280;13449;49.374;8.584;2023-03-15T05:07:50;101083.28;;;25.24;23.74
24486;BME280;13449;49.374;8.584;2023-03-15T05:10:17;101079.38;;;24.88;23.71
24486;BME280;13449;49.374;8.584;2023-03-15T05:12:45;101073.03;;;24.71;24.19
24486;BME280;13449;49.374;8.584;2023-03-15T05:15:12;101069.38;;;24.39;24.83
24486;BME280;13449;49.374;8.584;2023-03-15T05:17:39;101070.63;;;24.53;24.47
24486;BME280;13449;49.374;8.584;2023-03-15T05:20:08;101071.44;;;25.07;24.41
24486;BME280;13449;49.374;8.584;2023-03-15T05:22:37;101075.78;;;25.30;24.05
24486;BME280;13449;49.374;8.584;2023-03-15T05:25:04;101080.38;;;24.24;24.79
24486;BME280;13449;49.374;8.584;2023-03-15T05:27:31;101076.50;;;24.51;24.93
24486;BME280;13449;49.374;8.584;2023-03-15T05:30:00;101072.88;;;24.07;25.28
24486;BME280;13449;49.374;8.584;2023-03-15T05:32:30;101065.69;;;24.60;25.11
24486;BME280;13449;49.374;8.584;2023-03-15T05:35:00;101065.53;;;25.04;24.28
24486;BME280;13449;49.374;8.584;2023-03-15T05:37:27;101072.53;;;25.48;24.28
24486;BME280;13449;49.374;8.584;2023-03-15T05:39:54;101080.16;;;25.53;23.91
24486;BME280;13449;49.374;8.584;2023-03-15T05:42:21;101078.41;;;25.10;24.13
24486;BME280;13449;49.374;8.584;2023-03-15T05:44:55;101085.06;;;25.40;24.21
24486;BME280;13449;49.374;8.584;2023-03-15T05:47:22;101084.13;;;25.25;24.41
24486;BME280;13449;49.374;8.584;2023-03-15T05:49:51;101094.38;;;25.14;24.43
24486;BME280;13449;49.374;8.584;2023-03-15T05:52:18;101091.63;;;25.19;24.36
24486;BME280;13449;49.374;8.584;2023-03-15T05:54:45;101095.09;;;24.99;24.71
24486;BME280;13449;49.374;8.584;2023-03-15T05:57:11;101095.44;;;25.87;23.83
24486;BME280;13449;49.374;8.584;2023-03-15T05:59:38;101088.84;;;25.24;24.42
24486;BME280;13449;49.374;8.584;2023-03-15T06:02:04;101088.31;;;25.64;23.87
24486;BME280;13449;49.374;8.584;2023-03-15T06:04:34;101091.50;;;25.41;24.37
24486;BME280;13449;49.374;8.584;2023-03-15T06:07:01;101107.97;;;25.06;24.57
24486;BME280;13449;49.374;8.584;2023-03-15T06:09:30;101109.19;;;25.52;24.28
24486;BME280;13449;49.374;8.584;2023-03-15T06:12:01;101109.59;;;25.70;24.12
24486;BME280;13449;49.374;8.584;2023-03-15T06:14:30;101120.25;;;25.78;23.71
24486;BME280;13449;49.374;8.584;2023-03-15T06:16:57;101106.75;;;25.28;24.57
24486;BME280;13449;49.374;8.584;2023-03-15T06:19:23;101118.50;;;25.67;23.97
24486;BME280;13449;49.374;8.584;2023-03-15T06:21:50;101119.19;;;25.89;23.75
24486;BME280;13449;49.374;8.584;2023-03-15T06:24:16;101112.66;;;25.32;24.55
24486;BME280;13449;49.374;8.584;2023-03-15T06:26:43;101116.47;;;26.05;23.99
24486;BME280;13449;49.374;8.584;2023-03-15T06:29:09;101130.00;;;25.76;24.22
24486;BME280;13449;49.374;8.584;2023-03-15T06:31:36;101130.22;;;25.64;23.93
24486;BME280;13449;49.374;8.584;2023-03-15T06:34:04;101123.19;;;26.09;23.91
24486;BME280;13449;49.374;8.584;2023-03-15T06:36:31;101138.16;;;26.34;23.46
24486;BME280;13449;49.374;8.584;2023-03-15T06:38:58;101142.03;;;26.23;23.51
24486;BME280;13449;49.374;8.584;2023-03-15T06:41:24;101139.19;;;25.66;24.27
24486;BME280;13449;49.374;8.584;2023-03-15T06:43:52;101126.06;;;25.30;24.48
24486;BME280;13449;49.374;8.584;2023-03-15T06:46:18;101114.63;;;24.99;25.17
24486;BME280;13449;49.374;8.584;2023-03-15T06:48:45;101117.56;;;25.15;24.90
24486;BME280;13449;49.374;8.584;2023-03-15T06:51:12;101118.28;;;25.37;24.67
24486;BME280;13449;49.374;8.584;2023-03-15T06:53:38;101123.06;;;24.78;25.28
24486;BME280;13449;49.374;8.584;2023-03-15T06:56:07;101117.91;;;25.60;24.42
24486;BME280;13449;49.374;8.584;2023-03-15T06:58:34;101123.47;;;25.55;24.73
24486;BME280;13449;49.374;8.584;2023-03-15T07:01:01;101128.78;;;25.25;24.75
24486;BME280;13449;49.374;8.584;2023-03-15T07:03:28;101122.78;;;25.43;24.75
24486;BME280;13449;49.374;8.584;2023-03-15T07:05:55;101134.06;;;25.53;24.85
24486;BME280;13449;49.374;8.584;2023-03-15T07:08:24;101142.13;;;25.96;23.92
24486;BME280;13449;49.374;8.584;2023-03-15T07:10:51;101141.00;;;26.60;23.66
24486;BME280;13449;49.374;8.584;2023-03-15T07:13:18;101149.59;;;25.81;24.29
24486;BME280;13449;49.374;8.584;2023-03-15T07:15:45;101143.47;;;26.41;24.03
24486;BME280;13449;49.374;8.584;2023-03-15T07:18:18;101152.09;;;26.29;23.78
24486;BME280;13449;49.374;8.584;2023-03-15T07:20:45;101151.97;;;26.04;24.05
24486;BME280;13449;49.374;8.584;2023-03-15T07:23:14;101170.63;;;25.20;24.63
24486;BME280;13449;49.374;8.584;2023-03-15T07:25:40;101164.97;;;25.83;24.09
24486;BME280;13449;49.374;8.584;2023-03-15T07:28:21;101149.53;;;25.34;24.88
24486;BME280;13449;49.374;8.584;2023-03-15T07:30:57;101155.97;;;25.34;25.12
24486;BME280;13449;49.374;8.584;2023-03-15T07:33:25;101164.31;;;25.66;24.48
24486;BME280;13449;49.374;8.584;2023-03-15T07:35:52;101163.09;;;26.56;24.11
24486;BME280;13449;49.374;8.584;2023-03-15T07:38:26;101168.44;;;26.63;23.79
24486;BME280;13449;49.374;8.584;2023-03-15T07:40:56;101185.47;;;26.51;23.55
24486;BME280;13449;49.374;8.584;2023-03-15T07:43:23;101176.56;;;26.74;23.86
24486;BME280;13449;49.374;8.584;2023-03-15T07:45:49;101181.88;;;26.71;23.40
24486;BME280;13449;49.374;8.584;2023-03-15T07:48:16;101178.69;;;25.16;24.97
24486;BME280;13449;49.374;8.584;2023-03-15T07:50:44;101187.63;;;26.24;24.10
24486;BME280;13449;49.374;8.584;2023-03-15T07:53:13;101191.66;;;26.63;23.73
24486;BME280;13449;49.374;8.584;2023-03-15T07:55:39;101198.66;;;26.61;23.86
24486;BME280;13449;49.374;8.584;2023-03-15T07:58:06;101194.16;;;25.98;24.36
24486;BME280;13449;49.374;8.584;2023-03-15T08:00:35;101195.53;;;26.42;23.92
24486;BME280;13449;49.374;8.584;2023-03-15T08:03:04;101210.69;;;26.61;23.68
24486;BME280;13449;49.374;8.584;2023-03-15T08:05:36;101197.69;;;27.27;23.23
24486;BME280;13449;49.374;8.584;2023-03-15T08:08:03;101203.03;;;27.29;23.12
24486;BME280;13449;49.374;8.584;2023-03-15T08:10:30;101197.94;;;28.12;22.77
24486;BME280;13449;49.374;8.584;2023-03-15T08:12:59;101204.38;;;28.12;22.93
24486;BME280;13449;49.374;8.584;2023-03-15T08:15:28;101217.25;;;27.07;23.42
24486;BME280;13449;49.374;8.584;2023-03-15T08:17:54;101217.84;;;26.32;23.65
24486;BME280;13449;49.374;8.584;2023-03-15T08:20:21;101212.75;;;26.19;23.71
24486;BME280;13449;49.374;8.584;2023-03-15T08:22:48;101200.19;;;27.90;23.00
24486;BME280;13449;49.374;8.584;2023-03-15T08:25:17;101204.72;;;27.60;23.00
24486;BME280;13449;49.374;8.584;2023-03-15T08:27:44;101210.00;;;27.11;23.36
24486;BME280;13449;49.374;8.584;2023-03-15T08:30:12;101212.53;;;27.23;23.12
24486;BME280;13449;49.374;8.584;2023-03-15T08:32:41;101215.94;;;26.48;23.73
24486;BME280;13449;49.374;8.584;2023-03-15T08:35:12;101201.47;;;26.61;23.84
24486;BME280;13449;49.374;8.584;2023-03-15T08:37:41;101211.97;;;27.16;23.06
24486;BME280;13449;49.374;8.584;2023-03-15T08:40:14;101205.78;;;27.09;23.39
24486;BME280;13449;49.374;8.584;2023-03-15T08:42:41;101218.06;;;25.83;24.35
24486;BME280;13449;49.374;8.584;2023-03-15T08:45:08;101201.09;;;25.90;24.62
24486;BME280;13449;49.374;8.584;2023-03-15T08:47:36;101185.81;;;25.61;24.78
24486;BME280;13449;49.374;8.584;2023-03-15T08:50:05;101187.41;;;26.46;24.05
24486;BME280;13449;49.374;8.584;2023-03-15T08:52:32;101198.94;;;26.54;24.02
24486;BME280;13449;49.374;8.584;2023-03-15T08:54:59;101190.25;;;26.04;24.74
24486;BME280;13449;49.374;8.584;2023-03-15T08:57:26;101205.28;;;27.22;23.36
24486;BME280;13449;49.374;8.584;2023-03-15T08:59:54;101222.06;;;27.22;22.92
24486;BME280;13449;49.374;8.584;2023-03-15T09:02:21;101209.78;;;25.98;24.31
24486;BME280;13449;49.374;8.584;2023-03-15T09:04:49;101200.47;;;27.37;23.24
24486;BME280;13449;49.374;8.584;2023-03-15T09:07:18;101230.81;;;26.53;23.70
24486;BME280;13449;49.374;8.584;2023-03-15T09:09:47;101221.19;;;26.91;23.48
24486;BME280;13449;49.374;8.584;2023-03-15T09:12:17;101216.31;;;26.71;23.72
24486;BME280;13449;49.374;8.584;2023-03-15T09:14:43;101220.09;;;27.27;23.56
24486;BME280;13449;49.374;8.584;2023-03-15T09:17:10;101220.41;;;27.56;23.24
24486;BME280;13449;49.374;8.584;2023-03-15T09:19:37;101236.53;;;25.84;24.61
24486;BME280;13449;49.374;8.584;2023-03-15T09:22:06;101220.91;;;26.98;23.43
24486;BME280;13449;49.374;8.584;2023-03-15T09:24:49;101234.31;;;26.23;24.17
24486;BME280;13449;49.374;8.584;2023-03-15T09:27:18;101218.69;;;27.30;23.41
24486;BME280;13449;49.374;8.584;2023-03-15T09:29:44;101231.31;;;27.32;23.32
24486;BME280;13449;49.374;8.584;2023-03-15T09:32:11;101228.69;;;26.80;23.94
24486;BME280;13449;49.374;8.584;2023-03-15T09:34:37;101227.94;;;27.30;23.44
24486;BME280;13449;49.374;8.584;2023-03-15T09:37:07;101226.47;;;28.34;22.31
24486;BME280;13449;49.374;8.584;2023-03-15T09:39:34;101243.09;;;28.00;22.97
24486;BME280;13449;49.374;8.584;2023-03-15T09:42:02;101247.00;;;28.19;22.73
24486;BME280;13449;49.374;8.584;2023-03-15T09:44:45;101237.22;;;27.61;23.32
24486;BME280;13449;49.374;8.584;2023-03-15T09:49:47;101245.06;;;27.79;22.93
24486;BME280;13449;49.374;8.584;2023-03-15T09:55:05;101252.72;;;26.76;24.64
24486;BME280;13449;49.374;8.584;2023-03-15T09:57:42;101251.50;;;26.05;25.13
24486;BME280;13449;49.374;8.584;2023-03-15T10:00:14;101242.25;;;26.52;24.99
24486;BME280;13449;49.374;8.584;2023-03-15T10:02:44;101228.94;;;25.80;26.08
24486;BME280;13449;49.374;8.584;2023-03-15T10:05:27;101217.31;;;26.35;25.59
24486;BME280;13449;49.374;8.584;2023-03-15T10:07:56;101211.31;;;25.74;25.98
24486;BME280;13449;49.374;8.584;2023-03-15T10:10:33;101202.44;;;27.42;24.70
24486;BME280;13449;49.374;8.584;2023-03-15T10:13:12;101213.34;;;26.98;24.97
24486;BME280;13449;49.374;8.584;2023-03-15T10:18:53;101195.19;;;25.86;26.97
24486;BME280;13449;49.374;8.584;2023-03-15T10:21:46;101183.31;;;25.64;27.20
24486;BME280;13449;49.374;8.584;2023-03-15T10:27:08;101188.81;;;26.43;26.38
24486;BME280;13449;49.374;8.584;2023-03-15T10:29:39;101180.00;;;26.97;25.83
24486;BME280;13449;49.374;8.584;2023-03-15T10:32:14;101188.97;;;27.95;25.00
24486;BME280;13449;49.374;8.584;2023-03-15T10:34:48;101208.38;;;27.61;24.92
24486;BME280;13449;49.374;8.584;2023-03-15T10:37:19;101196.78;;;28.23;25.03
24486;BME280;13449;49.374;8.584;2023-03-15T10:39:53;101198.41;;;28.34;25.26
24486;BME280;13449;49.374;8.584;2023-03-15T10:42:29;101213.69;;;27.72;25.62
24486;BME280;13449;49.374;8.584;2023-03-15T10:44:57;101205.09;;;28.43;25.06
24486;BME280;13449;49.374;8.584;2023-03-15T10:47:26;101203.56;;;28.12;25.40
24486;BME280;13449;49.374;8.584;2023-03-15T10:49:57;101206.97;;;27.53;25.44
24486;BME280;13449;49.374;8.584;2023-03-15T10:52:37;101194.63;;;27.44;25.78
24486;BME280;13449;49.374;8.584;2023-03-15T10:55:11;101181.69;;;27.78;25.66
24486;BME280;13449;49.374;8.584;2023-03-15T10:57:54;101195.47;;;28.69;24.69
24486;BME280;13449;49.374;8.584;2023-03-15T11:02:50;101197.63;;;26.92;25.90
24486;BME280;13449;49.374;8.584;2023-03-15T11:05:18;101177.13;;;26.04;27.16
24486;BME280;13449;49.374;8.584;2023-03-15T11:07:55;101177.56;;;26.28;26.84
24486;BME280;13449;49.374;8.584;2023-03-15T11:10:32;101169.63;;;26.15;27.33
24486;BME280;13449;49.374;8.584;2023-03-15T11:15:52;101158.72;;;25.66;28.20
24486;BME280;13449;49.374;8.584;2023-03-15T11:18:27;101153.03;;;25.93;28.13
24486;BME280;13449;49.374;8.584;2023-03-15T11:20:55;101148.38;;;26.14;28.32
24486;BME280;13449;49.374;8.584;2023-03-15T11:23:26;101154.84;;;27.57;26.75
24486;BME280;13449;49.374;8.584;2023-03-15T11:25:55;101154.00;;;27.62;26.63
24486;BME280;13449;49.374;8.584;2023-03-15T11:28:26;101159.00;;;27.45;27.01
24486;BME280;13449;49.374;8.584;2023-03-15T11:30:56;101147.41;;;26.55;28.25
24486;BME280;13449;49.374;8.584;2023-03-15T11:33:40;101155.28;;;26.53;27.95
24486;BME280;13449;49.374;8.584;2023-03-15T11:36:19;101155.94;;;26.96;27.53
24486;BME280;13449;49.374;8.584;2023-03-15T11:38:49;101153.38;;;26.07;28.23
24486;BME280;13449;49.374;8.584;2023-03-15T11:41:24;101152.19;;;26.60;27.96
24486;BME280;13449;49.374;8.584;2023-03-15T11:49:52;101158.66;;;26.60;27.98
24486;BME280;13449;49.374;8.584;2023-03-15T11:54:24;101164.63;;;27.29;26.97
24486;BME280;13449;49.374;8.584;2023-03-15T12:03:32;101086.47;;;25.43;31.00
24486;BME280;13449;49.374;8.584;2023-03-15T12:08:18;100856.25;;;7.61;100.00
24486;BME280;13449;49.374;8.584;2023-03-15T12:10:46;100853.41;;;6.80;100.00
24486;BME280;13449;49.374;8.584;2023-03-15T12:13:19;100854.16;;;6.43;100.00
24486;BME280;13449;49.374;8.584;2023-03-15T12:15:50;100843.50;;;7.11;100.00
24486;BME280;13449;49.374;8.584;2023-03-15T12:18:20;100847.94;;;6.64;100.00
24486;BME280;13449;49.374;8.584;2023-03-15T12:21:05;100854.13;;;6.63;100.00
24486;BME280;13449;49.374;8.584;2023-03-15T12:23:48;100844.88;;;6.78;100.00
24486;BME280;13449;49.374;8.584;2023-03-15T12:26:25;100840.59;;;7.14;100.00
24486;BME280;13449;49.374;8.584;2023-03-15T12:31:43;100840.47;;;7.89;100.00
24486;BME280;13449;49.374;8.584;2023-03-15T12:34:22;100843.63;;;7.75;100.00
24486;BME280;13449;49.374;8.584;2023-03-15T12:36:58;100844.44;;;7.75;100.00
24486;BME280;13449;49.374;8.584;2023-03-15T12:39:45;100846.72;;;7.60;100.00
24486;BME280;13449;49.374;8.584;2023-03-15T12:53:04;100853.56;;;8.60;100.00
24486;BME280;13449;49.374;8.584;2023-03-15T12:55:38;100843.47;;;8.30;100.00
24486;BME280;13449;49.374;8.584;2023-03-15T12:58:09;100842.78;;;7.92;100.00
24486;BME280;13449;49.374;8.584;2023-03-15T13:00:38;100849.03;;;7.91;100.00
24486;BME280;13449;49.374;8.584;2023-03-15T13:03:11;100849.69;;;7.75;100.00
24486;BME280;13449;49.374;8.584;2023-03-15T13:11:22;100855.53;;;8.05;100.00
24486;BME280;13449;49.374;8.584;2023-03-15T13:16:44;100850.47;;;7.02;100.00
24486;BME280;13449;49.374;8.584;2023-03-15T13:19:26;100851.91;;;6.77;100.00
24486;BME280;13449;49.374;8.584;2023-03-15T13:27:49;100837.91;;;7.06;100.00
24486;BME280;13449;49.374;8.584;2023-03-15T13:30:31;100843.75;;;7.18;100.00
24486;BME280;13449;49.374;8.584;2023-03-15T13:33:05;100840.97;;;6.92;100.00
24486;BME280;13449;49.374;8.584;2023-03-15T13:35:46;100840.19;;;7.19;100.00
24486;BME280;13449;49.374;8.584;2023-03-15T13:41:00;100833.97;;;7.20;100.00
24486;BME280;13449;49.374;8.584;2023-03-15T13:43:35;100822.47;;;7.31;100.00
24486;BME280;13449;49.374;8.584;2023-03-15T13:46:02;100824.28;;;7.58;100.00
24486;BME280;13449;49.374;8.584;2023-03-15T13:48:31;100829.91;;;7.81;100.00
24486;BME280;13449;49.374;8.584;2023-03-15T13:53:41;100827.56;;;7.95;100.00
24486;BME280;13449;49.374;8.584;2023-03-15T13:56:19;100821.00;;;7.91;100.00
24486;BME280;13449;49.374;8.584;2023-03-15T13:58:47;100816.06;;;8.06;100.00
24486;BME280;13449;49.374;8.584;2023-03-15T14:01:15;100812.34;;;7.99;100.00
24486;BME280;13449;49.374;8.584;2023-03-15T14:03:46;100813.63;;;7.95;100.00
24486;BME280;13449;49.374;8.584;2023-03-15T14:06:21;100815.38;;;8.04;100.00
24486;BME280;13449;49.374;8.584;2023-03-15T14:08:54;100811.47;;;7.90;100.00
24486;BME280;13449;49.374;8.584;2023-03-15T14:13:56;100808.97;;;7.53;100.00
24486;BME280;13449;49.374;8.584;2023-03-15T14:16:39;100806.63;;;7.50;100.00
24486;BME280;13449;49.374;8.584;2023-03-15T14:19:31;100812.50;;;7.34;100.00
24486;BME280;13449;49.374;8.584;2023-03-15T14:22:24;100814.00;;;7.19;100.00
24486;BME280;13449;49.374;8.584;2023-03-15T14:24:51;100808.63;;;7.11;100.00